sensor_id;sensor_type;location;lat;lon;timestamp;temperature;humidity
12470;DHT22;36499;46.484;13.832;2023-05-07T00:01:51;10.00;99.90
12470;DHT22;36499;46.484;13.832;2023-05-07T00:04:18;10.00;99.90
12470;DHT22;36499;46.484;13.832;2023-05-07T00:06:46;10.00;99.90
12470;DHT22;36499;46.484;13.832;2023-05-07T00:09:14;10.10;99.90
12470;DHT22;36499;46.484;13.832;2023-05-07T00:11:42;10.10;99.90
12470;DHT22;36499;46.484;13.832;2023-05-07T00:14:09;10.10;99.90
12470;DHT22;36499;46.484;13.832;2023-05-07T00:16:36;10.20;99.90
12470;DHT22;36499;46.484;13.832;2023-05-07T00:19:03;10.20;99.90
12470;DHT22;36499;46.484;13.832;2023-05-07T00:21:30;10.20;99.90
12470;DHT22;36499;46.484;13.832;2023-05-07T00:23:57;10.20;99.90
12470;DHT22;36499;46.484;13.832;2023-05-07T00:26:26;10.20;99.90
12470;DHT22;36499;46.484;13.832;2023-05-07T00:28:53;10.20;99.90
12470;DHT22;36499;46.484;13.832;2023-05-07T00:31:20;10.20;99.90
12470;DHT22;36499;46.484;13.832;2023-05-07T00:33:47;10.20;99.90
12470;DHT22;36499;46.484;13.832;2023-05-07T00:36:14;10.20;99.90
12470;DHT22;36499;46.484;13.832;2023-05-07T00:38:41;10.20;99.90
12470;DHT22;36499;46.484;13.832;2023-05-07T00:41:08;10.20;99.90
12470;DHT22;36499;46.484;13.832;2023-05-07T00:43:36;10.20;99.90
12470;DHT22;36499;46.484;13.832;2023-05-07T00:46:03;10.20;99.90
12470;DHT22;36499;46.484;13.832;2023-05-07T00:48:31;10.20;99.90
12470;DHT22;36499;46.484;13.832;2023-05-07T00:50:59;10.20;99.90
12470;DHT22;36499;46.484;13.832;2023-05-07T00:53:26;10.20;99.90
12470;DHT22;36499;46.484;13.832;2023-05-07T00:55:53;10.20;99.90
12470;DHT22;36499;46.484;13.832;2023-05-07T00:58:21;10.20;99.90
12470;DHT22;36499;46.484;13.832;2023-05-07T01:00:49;10.20;99.90
12470;DHT22;36499;46.484;13.832;2023-05-07T01:03:17;10.10;99.90
12470;DHT22;36499;46.484;13.832;2023-05-07T01:05:46;10.10;99.90
12470;DHT22;36499;46.484;13.832;2023-05-07T01:08:15;10.10;99.90
12470;DHT22;36499;46.484;13.832;2023-05-07T01:10:45;10.10;99.90
12470;DHT22;36499;46.484;13.832;2023-05-07T01:13:13;10.10;99.90
12470;DHT22;36499;46.484;13.832;2023-05-07T01:15:42;10.10;99.90
12470;DHT22;36499;46.484;13.832;2023-05-07T01:18:11;10.10;99.90
12470;DHT22;36499;46.484;13.832;2023-05-07T01:20:38;10.10;99.90
12470;DHT22;36499;46.484;13.832;2023-05-07T01:23:07;10.10;99.90
12470;DHT22;36499;46.484;13.832;2023-05-07T01:25:35;10.00;99.90
12470;DHT22;36499;46.484;13.832;2023-05-07T01:28:02;10.00;99.90
12470;DHT22;36499;46.484;13.832;2023-05-07T01:30:29;10.00;99.90
12470;DHT22;36499;46.484;13.832;2023-05-07T01:33:00;10.00;99.90
12470;DHT22;36499;46.484;13.832;2023-05-07T01:35:37;10.00;99.90
12470;DHT22;36499;46.484;13.832;2023-05-07T01:38:09;9.90;99.90
12470;DHT22;36499;46.484;13.832;2023-05-07T01:40:36;10.00;99.90
12470;DHT22;36499;46.484;13.832;2023-05-07T01:43:04;10.00;99.90
12470;DHT22;36499;46.484;13.832;2023-05-07T01:45:32;10.00;99.90
12470;DHT22;36499;46.484;13.832;2023-05-07T01:48:02;10.00;99.90
12470;DHT22;36499;46.484;13.832;2023-05-07T01:50:30;9.90;99.90
12470;DHT22;36499;46.484;13.832;2023-05-07T01:52:58;9.90;99.90
12470;DHT22;36499;46.484;13.832;2023-05-07T01:55:27;9.80;99.90
12470;DHT22;36499;46.484;13.832;2023-05-07T01:57:54;9.80;99.90
12470;DHT22;36499;46.484;13.832;2023-05-07T02:00:22;9.70;99.90
12470;DHT22;36499;46.484;13.832;2023-05-07T02:02:49;9.70;99.90
12470;DHT22;36499;46.484;13.832;2023-05-07T02:05:18;9.70;99.90
12470;DHT22;36499;46.484;13.832;2023-05-07T02:07:45;9.60;99.90
12470;DHT22;36499;46.484;13.832;2023-05-07T02:10:12;9.60;99.90
12470;DHT22;36499;46.484;13.832;2023-05-07T02:12:41;9.60;99.90
12470;DHT22;36499;46.484;13.832;2023-05-07T02:15:08;9.60;99.90
12470;DHT22;36499;46.484;13.832;2023-05-07T02:17:39;9.60;99.90
12470;DHT22;36499;46.484;13.832;2023-05-07T02:20:25;9.60;99.90
12470;DHT22;36499;46.484;13.832;2023-05-07T02:22:52;9.60;99.90
12470;DHT22;36499;46.484;13.832;2023-05-07T02:25:19;9.60;99.90
12470;DHT22;36499;46.484;13.832;2023-05-07T02:27:48;9.50;99.90
12470;DHT22;36499;46.484;13.832;2023-05-07T02:30:15;9.50;99.90
12470;DHT22;36499;46.484;13.832;2023-05-07T02:32:42;9.50;99.90
12470;DHT22;36499;46.484;13.832;2023-05-07T02:35:10;9.50;99.90
12470;DHT22;36499;46.484;13.832;2023-05-07T02:37:37;9.50;99.90
12470;DHT22;36499;46.484;13.832;2023-05-07T02:40:05;9.40;99.90
12470;DHT22;36499;46.484;13.832;2023-05-07T02:42:33;9.40;99.90
12470;DHT22;36499;46.484;13.832;2023-05-07T02:45:01;9.40;99.90
12470;DHT22;36499;46.484;13.832;2023-05-07T02:47:29;9.30;99.90
12470;DHT22;36499;46.484;13.832;2023-05-07T02:49:56;9.30;99.90
12470;DHT22;36499;46.484;13.832;2023-05-07T02:52:23;9.30;99.90
12470;DHT22;36499;46.484;13.832;2023-05-07T02:54:51;9.20;99.90
12470;DHT22;36499;46.484;13.832;2023-05-07T02:57:18;9.20;99.90
12470;DHT22;36499;46.484;13.832;2023-05-07T02:59:45;9.20;99.90
12470;DHT22;36499;46.484;13.832;2023-05-07T03:02:14;9.10;99.90
12470;DHT22;36499;46.484;13.832;2023-05-07T03:04:41;9.10;99.90
12470;DHT22;36499;46.484;13.832;2023-05-07T03:07:08;9.10;99.90
12470;DHT22;36499;46.484;13.832;2023-05-07T03:09:35;9.00;99.90
12470;DHT22;36499;46.484;13.832;2023-05-07T03:12:02;9.00;99.90
12470;DHT22;36499;46.484;13.832;2023-05-07T03:14:29;9.00;99.90
12470;DHT22;36499;46.484;13.832;2023-05-07T03:16:56;9.00;99.90
12470;DHT22;36499;46.484;13.832;2023-05-07T03:19:24;9.00;99.90
12470;DHT22;36499;46.484;13.832;2023-05-07T03:21:52;9.00;99.90
12470;DHT22;36499;46.484;13.832;2023-05-07T03:24:19;9.00;99.90
12470;DHT22;36499;46.484;13.832;2023-05-07T03:26:46;9.00;99.90
12470;DHT22;36499;46.484;13.832;2023-05-07T03:29:13;8.90;99.90
12470;DHT22;36499;46.484;13.832;2023-05-07T03:31:40;8.90;99.90
12470;DHT22;36499;46.484;13.832;2023-05-07T03:34:07;8.90;99.90
12470;DHT22;36499;46.484;13.832;2023-05-07T03:36:35;8.90;99.90
12470;DHT22;36499;46.484;13.832;2023-05-07T03:39:02;8.90;99.90
12470;DHT22;36499;46.484;13.832;2023-05-07T03:41:29;8.90;99.90
12470;DHT22;36499;46.484;13.832;2023-05-07T03:43:56;8.90;99.90
12470;DHT22;36499;46.484;13.832;2023-05-07T03:46:23;8.90;99.90
12470;DHT22;36499;46.484;13.832;2023-05-07T03:48:51;8.90;99.90
12470;DHT22;36499;46.484;13.832;2023-05-07T03:51:18;8.80;99.90
12470;DHT22;36499;46.484;13.832;2023-05-07T03:53:47;8.80;99.90
12470;DHT22;36499;46.484;13.832;2023-05-07T03:56:14;8.80;99.90
12470;DHT22;36499;46.484;13.832;2023-05-07T03:58:41;8.80;99.90
12470;DHT22;36499;46.484;13.832;2023-05-07T04:01:08;8.70;99.90
12470;DHT22;36499;46.484;13.832;2023-05-07T04:03:35;8.70;99.90
12470;DHT22;36499;46.484;13.832;2023-05-07T04:06:02;8.70;99.90
12470;DHT22;36499;46.484;13.832;2023-05-07T04:08:29;8.70;99.90
12470;DHT22;36499;46.484;13.832;2023-05-07T04:10:58;8.60;99.90
12470;DHT22;36499;46.484;13.832;2023-05-07T04:13:26;8.60;99.90
12470;DHT22;36499;46.484;13.832;2023-05-07T04:15:54;8.60;99.90
12470;DHT22;36499;46.484;13.832;2023-05-07T04:18:22;8.50;99.90
12470;DHT22;36499;46.484;13.832;2023-05-07T04:20:49;8.50;99.90
12470;DHT22;36499;46.484;13.832;2023-05-07T04:23:16;8.50;99.90
12470;DHT22;36499;46.484;13.832;2023-05-07T04:25:43;8.50;99.90
12470;DHT22;36499;46.484;13.832;2023-05-07T04:28:12;8.50;99.90
12470;DHT22;36499;46.484;13.832;2023-05-07T04:30:39;8.50;99.90
12470;DHT22;36499;46.484;13.832;2023-05-07T04:33:06;8.50;99.90
12470;DHT22;36499;46.484;13.832;2023-05-07T04:35:34;8.40;99.90
12470;DHT22;36499;46.484;13.832;2023-05-07T04:38:01;8.40;99.90
12470;DHT22;36499;46.484;13.832;2023-05-07T04:40:29;8.40;99.90
12470;DHT22;36499;46.484;13.832;2023-05-07T04:42:56;8.40;99.90
12470;DHT22;36499;46.484;13.832;2023-05-07T04:45:24;8.30;99.90
12470;DHT22;36499;46.484;13.832;2023-05-07T04:47:51;8.30;99.90
12470;DHT22;36499;46.484;13.832;2023-05-07T04:50:18;8.40;99.90
12470;DHT22;36499;46.484;13.832;2023-05-07T04:52:45;8.40;99.90
12470;DHT22;36499;46.484;13.832;2023-05-07T04:55:12;8.40;99.90
12470;DHT22;36499;46.484;13.832;2023-05-07T04:57:40;8.40;99.90
12470;DHT22;36499;46.484;13.832;2023-05-07T05:00:08;8.30;99.90
12470;DHT22;36499;46.484;13.832;2023-05-07T05:02:37;8.30;99.90
12470;DHT22;36499;46.484;13.832;2023-05-07T05:05:04;8.40;99.90
12470;DHT22;36499;46.484;13.832;2023-05-07T05:07:32;8.40;99.90
12470;DHT22;36499;46.484;13.832;2023-05-07T05:09:59;8.40;99.90
12470;DHT22;36499;46.484;13.832;2023-05-07T05:12:26;8.50;99.90
12470;DHT22;36499;46.484;13.832;2023-05-07T05:14:53;8.50;99.90
12470;DHT22;36499;46.484;13.832;2023-05-07T05:17:20;8.60;99.90
12470;DHT22;36499;46.484;13.832;2023-05-07T05:19:49;8.60;99.90
12470;DHT22;36499;46.484;13.832;2023-05-07T05:22:16;8.70;99.90
12470;DHT22;36499;46.484;13.832;2023-05-07T05:24:43;8.70;99.90
12470;DHT22;36499;46.484;13.832;2023-05-07T05:27:10;8.70;99.90
12470;DHT22;36499;46.484;13.832;2023-05-07T05:29:37;8.80;99.90
12470;DHT22;36499;46.484;13.832;2023-05-07T05:32:04;8.80;99.90
12470;DHT22;36499;46.484;13.832;2023-05-07T05:34:31;8.90;99.90
12470;DHT22;36499;46.484;13.832;2023-05-07T05:37:00;8.90;99.90
12470;DHT22;36499;46.484;13.832;2023-05-07T05:39:27;9.00;99.90
12470;DHT22;36499;46.484;13.832;2023-05-07T05:41:54;9.00;99.90
12470;DHT22;36499;46.484;13.832;2023-05-07T05:44:21;9.10;99.90
12470;DHT22;36499;46.484;13.832;2023-05-07T05:46:48;9.20;99.90
12470;DHT22;36499;46.484;13.832;2023-05-07T05:49:16;9.30;99.90
12470;DHT22;36499;46.484;13.832;2023-05-07T05:51:43;9.30;99.90
12470;DHT22;36499;46.484;13.832;2023-05-07T05:54:11;9.40;99.90
12470;DHT22;36499;46.484;13.832;2023-05-07T05:56:38;9.60;99.90
12470;DHT22;36499;46.484;13.832;2023-05-07T05:59:05;9.70;99.90
12470;DHT22;36499;46.484;13.832;2023-05-07T06:01:33;9.80;99.90
12470;DHT22;36499;46.484;13.832;2023-05-07T06:04:00;9.80;99.90
12470;DHT22;36499;46.484;13.832;2023-05-07T06:06:27;9.90;99.90
12470;DHT22;36499;46.484;13.832;2023-05-07T06:08:54;10.00;99.90
12470;DHT22;36499;46.484;13.832;2023-05-07T06:11:22;10.10;99.90
12470;DHT22;36499;46.484;13.832;2023-05-07T06:13:50;10.20;99.90
12470;DHT22;36499;46.484;13.832;2023-05-07T06:16:17;10.30;99.90
12470;DHT22;36499;46.484;13.832;2023-05-07T06:18:44;10.40;99.90
12470;DHT22;36499;46.484;13.832;2023-05-07T06:21:13;10.50;99.90
12470;DHT22;36499;46.484;13.832;2023-05-07T06:23:40;10.60;99.90
12470;DHT22;36499;46.484;13.832;2023-05-07T06:26:07;10.70;99.90
12470;DHT22;36499;46.484;13.832;2023-05-07T06:28:35;10.80;99.90
12470;DHT22;36499;46.484;13.832;2023-05-07T06:31:13;10.90;99.90
12470;DHT22;36499;46.484;13.832;2023-05-07T06:33:41;11.10;99.90
12470;DHT22;36499;46.484;13.832;2023-05-07T06:36:08;11.20;99.90
12470;DHT22;36499;46.484;13.832;2023-05-07T06:38:35;11.30;99.90
12470;DHT22;36499;46.484;13.832;2023-05-07T06:41:02;11.30;99.90
12470;DHT22;36499;46.484;13.832;2023-05-07T06:43:29;11.40;99.90
12470;DHT22;36499;46.484;13.832;2023-05-07T06:45:58;11.50;99.90
12470;DHT22;36499;46.484;13.832;2023-05-07T06:48:25;11.60;99.90
12470;DHT22;36499;46.484;13.832;2023-05-07T06:50:52;11.60;99.90
12470;DHT22;36499;46.484;13.832;2023-05-07T06:53:21;11.60;99.90
12470;DHT22;36499;46.484;13.832;2023-05-07T06:55:48;11.60;99.90
12470;DHT22;36499;46.484;13.832;2023-05-07T06:58:15;11.70;99.90
12470;DHT22;36499;46.484;13.832;2023-05-07T07:00:42;11.70;99.90
12470;DHT22;36499;46.484;13.832;2023-05-07T07:03:11;11.80;99.90
12470;DHT22;36499;46.484;13.832;2023-05-07T07:05:40;12.00;99.90
12470;DHT22;36499;46.484;13.832;2023-05-07T07:08:07;12.10;99.90
12470;DHT22;36499;46.484;13.832;2023-05-07T07:10:34;12.30;99.90
12470;DHT22;36499;46.484;13.832;2023-05-07T07:13:01;12.40;99.90
12470;DHT22;36499;46.484;13.832;2023-05-07T07:15:28;12.50;99.90
12470;DHT22;36499;46.484;13.832;2023-05-07T07:17:55;12.70;99.90
12470;DHT22;36499;46.484;13.832;2023-05-07T07:20:24;12.80;99.90
12470;DHT22;36499;46.484;13.832;2023-05-07T07:22:51;12.80;99.90
12470;DHT22;36499;46.484;13.832;2023-05-07T07:25:18;12.80;99.90
12470;DHT22;36499;46.484;13.832;2023-05-07T07:27:45;12.90;99.90
12470;DHT22;36499;46.484;13.832;2023-05-07T07:30:12;13.00;99.90
12470;DHT22;36499;46.484;13.832;2023-05-07T07:32:39;13.20;99.90
12470;DHT22;36499;46.484;13.832;2023-05-07T07:35:07;13.20;99.90
12470;DHT22;36499;46.484;13.832;2023-05-07T07:37:36;13.20;99.90
12470;DHT22;36499;46.484;13.832;2023-05-07T07:40:04;13.30;99.90
12470;DHT22;36499;46.484;13.832;2023-05-07T07:42:32;13.50;99.90
12470;DHT22;36499;46.484;13.832;2023-05-07T07:44:59;13.60;99.90
12470;DHT22;36499;46.484;13.832;2023-05-07T07:47:26;13.80;99.90
12470;DHT22;36499;46.484;13.832;2023-05-07T07:49:53;14.00;99.90
12470;DHT22;36499;46.484;13.832;2023-05-07T07:52:21;14.20;99.90
12470;DHT22;36499;46.484;13.832;2023-05-07T07:54:49;14.30;99.90
12470;DHT22;36499;46.484;13.832;2023-05-07T07:57:16;14.40;99.90
12470;DHT22;36499;46.484;13.832;2023-05-07T07:59:43;14.40;99.90
12470;DHT22;36499;46.484;13.832;2023-05-07T08:02:10;14.40;99.90
12470;DHT22;36499;46.484;13.832;2023-05-07T08:04:37;14.50;99.90
12470;DHT22;36499;46.484;13.832;2023-05-07T08:07:04;14.60;99.90
12470;DHT22;36499;46.484;13.832;2023-05-07T08:09:31;14.60;99.90
12470;DHT22;36499;46.484;13.832;2023-05-07T08:12:00;14.70;99.90
12470;DHT22;36499;46.484;13.832;2023-05-07T08:14:27;14.70;99.90
12470;DHT22;36499;46.484;13.832;2023-05-07T08:16:55;14.80;99.90
12470;DHT22;36499;46.484;13.832;2023-05-07T08:19:22;14.80;99.90
12470;DHT22;36499;46.484;13.832;2023-05-07T08:21:49;14.70;99.90
12470;DHT22;36499;46.484;13.832;2023-05-07T08:24:16;14.80;99.90
12470;DHT22;36499;46.484;13.832;2023-05-07T08:26:44;14.90;99.90
12470;DHT22;36499;46.484;13.832;2023-05-07T08:29:13;15.00;99.90
12470;DHT22;36499;46.484;13.832;2023-05-07T08:31:40;15.00;99.90
12470;DHT22;36499;46.484;13.832;2023-05-07T08:34:08;15.10;99.90
12470;DHT22;36499;46.484;13.832;2023-05-07T08:36:35;15.20;99.90
12470;DHT22;36499;46.484;13.832;2023-05-07T08:39:02;15.40;99.90
12470;DHT22;36499;46.484;13.832;2023-05-07T08:41:30;15.40;99.90
12470;DHT22;36499;46.484;13.832;2023-05-07T08:43:59;15.50;99.90
12470;DHT22;36499;46.484;13.832;2023-05-07T08:46:31;15.50;99.90
12470;DHT22;36499;46.484;13.832;2023-05-07T08:48:59;15.60;99.90
12470;DHT22;36499;46.484;13.832;2023-05-07T08:51:26;15.60;99.90
12470;DHT22;36499;46.484;13.832;2023-05-07T08:53:53;15.70;99.90
12470;DHT22;36499;46.484;13.832;2023-05-07T08:56:20;15.90;99.90
12470;DHT22;36499;46.484;13.832;2023-05-07T08:58:48;16.00;99.90
12470;DHT22;36499;46.484;13.832;2023-05-07T09:01:16;16.20;99.90
12470;DHT22;36499;46.484;13.832;2023-05-07T09:03:46;16.50;99.90
12470;DHT22;36499;46.484;13.832;2023-05-07T09:06:13;16.60;99.90
12470;DHT22;36499;46.484;13.832;2023-05-07T09:08:40;16.80;99.90
12470;DHT22;36499;46.484;13.832;2023-05-07T09:11:07;17.00;99.90
12470;DHT22;36499;46.484;13.832;2023-05-07T09:13:35;17.20;99.90
12470;DHT22;36499;46.484;13.832;2023-05-07T09:16:10;17.50;99.90
12470;DHT22;36499;46.484;13.832;2023-05-07T09:18:41;17.70;99.90
12470;DHT22;36499;46.484;13.832;2023-05-07T09:21:11;18.00;99.90
12470;DHT22;36499;46.484;13.832;2023-05-07T09:23:42;18.10;99.90
12470;DHT22;36499;46.484;13.832;2023-05-07T09:26:09;18.20;99.90
12470;DHT22;36499;46.484;13.832;2023-05-07T09:28:39;18.60;99.90
12470;DHT22;36499;46.484;13.832;2023-05-07T09:31:07;18.90;99.90
12470;DHT22;36499;46.484;13.832;2023-05-07T09:33:34;19.20;99.90
12470;DHT22;36499;46.484;13.832;2023-05-07T09:36:04;19.40;99.90
12470;DHT22;36499;46.484;13.832;2023-05-07T09:38:35;19.60;99.90
12470;DHT22;36499;46.484;13.832;2023-05-07T09:41:04;19.80;99.90
12470;DHT22;36499;46.484;13.832;2023-05-07T09:43:33;20.00;99.90
12470;DHT22;36499;46.484;13.832;2023-05-07T09:46:12;20.20;99.90
12470;DHT22;36499;46.484;13.832;2023-05-07T09:48:42;20.20;99.90
12470;DHT22;36499;46.484;13.832;2023-05-07T09:51:22;20.10;99.90
12470;DHT22;36499;46.484;13.832;2023-05-07T09:53:58;20.00;99.90
12470;DHT22;36499;46.484;13.832;2023-05-07T09:56:29;20.00;99.90
12470;DHT22;36499;46.484;13.832;2023-05-07T09:58:58;19.90;99.90
12470;DHT22;36499;46.484;13.832;2023-05-07T10:53:47;21.70;99.90
12470;DHT22;36499;46.484;13.832;2023-05-07T10:56:25;21.90;99.90
12470;DHT22;36499;46.484;13.832;2023-05-07T10:58:53;21.70;99.90
12470;DHT22;36499;46.484;13.832;2023-05-07T11:01:52;21.70;99.90
12470;DHT22;36499;46.484;13.832;2023-05-07T11:04:20;21.70;99.90
12470;DHT22;36499;46.484;13.832;2023-05-07T11:07:23;21.60;99.90
12470;DHT22;36499;46.484;13.832;2023-05-07T11:10:13;21.50;99.90
12470;DHT22;36499;46.484;13.832;2023-05-07T11:12:51;21.20;99.90
12470;DHT22;36499;46.484;13.832;2023-05-07T11:15:40;21.10;99.90
12470;DHT22;36499;46.484;13.832;2023-05-07T11:18:12;21.00;99.90
12470;DHT22;36499;46.484;13.832;2023-05-07T11:20:54;21.10;99.90
12470;DHT22;36499;46.484;13.832;2023-05-07T11:23:57;21.20;99.90
12470;DHT22;36499;46.484;13.832;2023-05-07T11:26:26;21.50;99.90
12470;DHT22;36499;46.484;13.832;2023-05-07T11:32:35;22.00;99.90
12470;DHT22;36499;46.484;13.832;2023-05-07T11:35:03;22.10;99.90
12470;DHT22;36499;46.484;13.832;2023-05-07T11:37:30;22.30;99.90
12470;DHT22;36499;46.484;13.832;2023-05-07T11:40:06;22.20;99.90
12470;DHT22;36499;46.484;13.832;2023-05-07T11:42:37;22.30;99.90
12470;DHT22;36499;46.484;13.832;2023-05-07T11:45:06;22.20;99.90
12470;DHT22;36499;46.484;13.832;2023-05-07T11:47:34;22.10;99.90
12470;DHT22;36499;46.484;13.832;2023-05-07T11:50:04;21.80;99.90
12470;DHT22;36499;46.484;13.832;2023-05-07T11:52:33;21.60;99.90
12470;DHT22;36499;46.484;13.832;2023-05-07T11:55:02;21.40;99.90
12470;DHT22;36499;46.484;13.832;2023-05-07T11:57:33;21.30;99.90
12470;DHT22;36499;46.484;13.832;2023-05-07T12:00:01;21.20;99.90
12470;DHT22;36499;46.484;13.832;2023-05-07T12:02:30;21.20;99.90
12470;DHT22;36499;46.484;13.832;2023-05-07T12:05:00;21.30;99.90
12470;DHT22;36499;46.484;13.832;2023-05-07T12:07:28;21.30;99.90
12470;DHT22;36499;46.484;13.832;2023-05-07T12:09:55;21.30;99.90
12470;DHT22;36499;46.484;13.832;2023-05-07T12:12:22;21.30;99.90
12470;DHT22;36499;46.484;13.832;2023-05-07T12:14:51;21.20;99.90
12470;DHT22;36499;46.484;13.832;2023-05-07T12:17:18;21.20;99.90
12470;DHT22;36499;46.484;13.832;2023-05-07T12:19:46;21.30;99.90
12470;DHT22;36499;46.484;13.832;2023-05-07T12:22:14;21.40;99.90
12470;DHT22;36499;46.484;13.832;2023-05-07T12:24:44;21.40;99.90
12470;DHT22;36499;46.484;13.832;2023-05-07T12:27:13;21.40;99.90
12470;DHT22;36499;46.484;13.832;2023-05-07T12:29:44;21.30;99.90
12470;DHT22;36499;46.484;13.832;2023-05-07T12:32:15;21.30;99.90
12470;DHT22;36499;46.484;13.832;2023-05-07T12:34:42;21.20;99.90
12470;DHT22;36499;46.484;13.832;2023-05-07T12:37:10;21.10;99.90
12470;DHT22;36499;46.484;13.832;2023-05-07T12:39:38;21.10;99.90
12470;DHT22;36499;46.484;13.832;2023-05-07T12:42:14;21.00;99.90
12470;DHT22;36499;46.484;13.832;2023-05-07T12:44:45;20.90;99.90
12470;DHT22;36499;46.484;13.832;2023-05-07T12:47:18;20.80;99.90
12470;DHT22;36499;46.484;13.832;2023-05-07T12:49:45;20.80;99.90
12470;DHT22;36499;46.484;13.832;2023-05-07T12:52:13;20.80;99.90
12470;DHT22;36499;46.484;13.832;2023-05-07T12:54:41;20.80;99.90
12470;DHT22;36499;46.484;13.832;2023-05-07T12:57:09;20.80;99.90
12470;DHT22;36499;46.484;13.832;2023-05-07T12:59:37;20.80;99.90
12470;DHT22;36499;46.484;13.832;2023-05-07T13:02:05;20.80;99.90
12470;DHT22;36499;46.484;13.832;2023-05-07T13:04:34;20.80;99.90
12470;DHT22;36499;46.484;13.832;2023-05-07T13:07:02;20.80;99.90
12470;DHT22;36499;46.484;13.832;2023-05-07T13:09:29;20.80;99.90
12470;DHT22;36499;46.484;13.832;2023-05-07T13:11:58;20.80;99.90
12470;DHT22;36499;46.484;13.832;2023-05-07T13:14:26;20.70;99.90
12470;DHT22;36499;46.484;13.832;2023-05-07T13:16:53;20.70;99.90
12470;DHT22;36499;46.484;13.832;2023-05-07T13:19:20;20.70;99.90
12470;DHT22;36499;46.484;13.832;2023-05-07T13:21:49;20.70;99.90
12470;DHT22;36499;46.484;13.832;2023-05-07T13:24:16;20.70;99.90
12470;DHT22;36499;46.484;13.832;2023-05-07T13:26:43;20.70;99.90
12470;DHT22;36499;46.484;13.832;2023-05-07T13:29:10;20.70;99.90
12470;DHT22;36499;46.484;13.832;2023-05-07T13:31:37;20.70;99.90
12470;DHT22;36499;46.484;13.832;2023-05-07T13:34:08;20.60;99.90
12470;DHT22;36499;46.484;13.832;2023-05-07T13:36:35;20.70;99.90
12470;DHT22;36499;46.484;13.832;2023-05-07T13:39:04;20.70;99.90
12470;DHT22;36499;46.484;13.832;2023-05-07T13:41:31;20.60;99.90
12470;DHT22;36499;46.484;13.832;2023-05-07T13:43:58;20.60;99.90
12470;DHT22;36499;46.484;13.832;2023-05-07T13:46:25;20.50;99.90
12470;DHT22;36499;46.484;13.832;2023-05-07T13:48:52;20.40;99.90
12470;DHT22;36499;46.484;13.832;2023-05-07T13:51:20;20.20;99.90
12470;DHT22;36499;46.484;13.832;2023-05-07T13:53:47;20.00;99.90
12470;DHT22;36499;46.484;13.832;2023-05-07T13:56:15;19.80;99.90
12470;DHT22;36499;46.484;13.832;2023-05-07T13:58:43;19.50;99.90
12470;DHT22;36499;46.484;13.832;2023-05-07T14:01:10;19.40;99.90
12470;DHT22;36499;46.484;13.832;2023-05-07T14:03:37;19.20;99.90
12470;DHT22;36499;46.484;13.832;2023-05-07T14:06:05;19.00;99.90
12470;DHT22;36499;46.484;13.832;2023-05-07T14:08:32;18.90;99.90
12470;DHT22;36499;46.484;13.832;2023-05-07T14:10:59;18.60;99.90
12470;DHT22;36499;46.484;13.832;2023-05-07T14:13:27;18.50;99.90
12470;DHT22;36499;46.484;13.832;2023-05-07T14:15:56;18.40;99.90
12470;DHT22;36499;46.484;13.832;2023-05-07T14:18:23;18.30;99.90
12470;DHT22;36499;46.484;13.832;2023-05-07T14:20:50;18.30;99.90
12470;DHT22;36499;46.484;13.832;2023-05-07T14:23:17;18.20;99.90
12470;DHT22;36499;46.484;13.832;2023-05-07T14:25:47;18.10;99.90
12470;DHT22;36499;46.484;13.832;2023-05-07T14:28:14;18.20;99.90
12470;DHT22;36499;46.484;13.832;2023-05-07T14:30:43;18.00;99.90
12470;DHT22;36499;46.484;13.832;2023-05-07T14:33:10;17.80;99.90
12470;DHT22;36499;46.484;13.832;2023-05-07T14:35:37;17.80;99.90
12470;DHT22;36499;46.484;13.832;2023-05-07T14:38:04;17.70;99.90
12470;DHT22;36499;46.484;13.832;2023-05-07T14:40:31;17.70;99.90
12470;DHT22;36499;46.484;13.832;2023-05-07T14:42:58;17.60;99.90
12470;DHT22;36499;46.484;13.832;2023-05-07T14:45:25;17.60;99.90
12470;DHT22;36499;46.484;13.832;2023-05-07T14:47:54;17.50;99.90
12470;DHT22;36499;46.484;13.832;2023-05-07T14:50:21;17.50;99.90
12470;DHT22;36499;46.484;13.832;2023-05-07T14:52:48;17.60;99.90
12470;DHT22;36499;46.484;13.832;2023-05-07T14:55:15;17.70;99.90
12470;DHT22;36499;46.484;13.832;2023-05-07T14:57:42;17.70;99.90
12470;DHT22;36499;46.484;13.832;2023-05-07T15:00:10;17.70;99.90
12470;DHT22;36499;46.484;13.832;2023-05-07T15:02:38;17.70;99.90
12470;DHT22;36499;46.484;13.832;2023-05-07T15:05:07;17.70;99.90
12470;DHT22;36499;46.484;13.832;2023-05-07T15:07:34;17.70;99.90
12470;DHT22;36499;46.484;13.832;2023-05-07T15:10:02;17.70;99.90
12470;DHT22;36499;46.484;13.832;2023-05-07T15:12:29;17.50;99.90
12470;DHT22;36499;46.484;13.832;2023-05-07T15:14:56;17.50;99.90
12470;DHT22;36499;46.484;13.832;2023-05-07T15:17:23;17.50;99.90
12470;DHT22;36499;46.484;13.832;2023-05-07T15:19:50;17.40;99.90
12470;DHT22;36499;46.484;13.832;2023-05-07T15:22:18;17.40;99.90
12470;DHT22;36499;46.484;13.832;2023-05-07T15:24:46;17.30;99.90
12470;DHT22;36499;46.484;13.832;2023-05-07T15:27:13;17.20;99.90
12470;DHT22;36499;46.484;13.832;2023-05-07T15:29:42;17.10;99.90
12470;DHT22;36499;46.484;13.832;2023-05-07T15:32:09;17.10;99.90
12470;DHT22;36499;46.484;13.832;2023-05-07T15:34:36;17.00;99.90
12470;DHT22;36499;46.484;13.832;2023-05-07T15:37:03;17.00;99.90
12470;DHT22;36499;46.484;13.832;2023-05-07T15:39:32;16.90;99.90
12470;DHT22;36499;46.484;13.832;2023-05-07T15:41:59;16.80;99.90
12470;DHT22;36499;46.484;13.832;2023-05-07T15:44:26;16.80;99.90
12470;DHT22;36499;46.484;13.832;2023-05-07T15:46:55;16.80;99.90
12470;DHT22;36499;46.484;13.832;2023-05-07T15:49:22;16.70;99.90
12470;DHT22;36499;46.484;13.832;2023-05-07T15:51:49;16.60;99.90
12470;DHT22;36499;46.484;13.832;2023-05-07T15:54:19;16.60;99.90
12470;DHT22;36499;46.484;13.832;2023-05-07T15:56:47;16.60;99.90
12470;DHT22;36499;46.484;13.832;2023-05-07T15:59:16;16.40;99.90
12470;DHT22;36499;46.484;13.832;2023-05-07T16:01:43;16.30;99.90
12470;DHT22;36499;46.484;13.832;2023-05-07T16:04:10;16.20;99.90
12470;DHT22;36499;46.484;13.832;2023-05-07T16:06:37;16.20;99.90
12470;DHT22;36499;46.484;13.832;2023-05-07T16:09:04;16.10;99.90
12470;DHT22;36499;46.484;13.832;2023-05-07T16:11:32;16.10;99.90
12470;DHT22;36499;46.484;13.832;2023-05-07T16:14:00;16.00;99.90
12470;DHT22;36499;46.484;13.832;2023-05-07T16:16:27;16.00;99.90
12470;DHT22;36499;46.484;13.832;2023-05-07T16:18:54;16.00;99.90
12470;DHT22;36499;46.484;13.832;2023-05-07T16:21:21;16.00;99.90
12470;DHT22;36499;46.484;13.832;2023-05-07T16:23:49;16.00;99.90